createdAt,value
2022-08-26T00:01:30.611Z,53.30
2022-08-26T00:03:57.354Z,53.30
2022-08-26T00:06:24.767Z,53.30
2022-08-26T00:08:51.500Z,53.30
2022-08-26T00:11:26.663Z,53.30
2022-08-26T00:13:57.050Z,53.30
2022-08-26T00:16:25.825Z,53.30
2022-08-26T00:18:53.187Z,53.30
2022-08-26T00:21:20.004Z,53.00
2022-08-26T00:23:46.737Z,52.80
2022-08-26T00:26:13.647Z,52.60
2022-08-26T00:28:42.091Z,52.30
2022-08-26T00:31:10.960Z,52.00
2022-08-26T00:33:38.568Z,51.90
2022-08-26T00:36:05.979Z,51.90
2022-08-26T00:38:32.924Z,52.00
2022-08-26T00:40:59.725Z,52.80
2022-08-26T00:43:26.521Z,52.20
2022-08-26T00:45:57.063Z,52.20
2022-08-26T00:48:24.972Z,52.30
2022-08-26T00:50:56.770Z,52.50
2022-08-26T00:53:27.895Z,52.50
2022-08-26T00:55:56.673Z,53.30
2022-08-26T00:58:23.459Z,52.70
2022-08-26T01:00:50.243Z,52.70
2022-08-26T01:03:17.119Z,52.80
2022-08-26T01:05:43.851Z,52.80
2022-08-26T01:08:10.589Z,52.90
2022-08-26T01:10:37.284Z,52.90
2022-08-26T01:13:06.201Z,53.00
2022-08-26T01:15:35.850Z,53.00
2022-08-26T01:18:04.065Z,53.00
2022-08-26T01:20:43.102Z,53.10
2022-08-26T01:23:10.222Z,53.10
2022-08-26T01:25:39.203Z,53.10
2022-08-26T01:28:06.824Z,53.10
2022-08-26T01:30:33.850Z,53.10
2022-08-26T01:33:01.407Z,53.00
2022-08-26T01:35:29.397Z,52.90
2022-08-26T01:37:56.660Z,52.70
2022-08-26T01:40:26.143Z,52.40
2022-08-26T01:42:53.644Z,52.20
2022-08-26T01:45:25.216Z,51.90
2022-08-26T01:47:56.814Z,51.80
2022-08-26T01:50:30.253Z,51.80
2022-08-26T01:52:57.881Z,52.40
2022-08-26T01:55:29.309Z,52.00
2022-08-26T01:57:59.499Z,52.00
2022-08-26T02:00:26.747Z,52.10
2022-08-26T02:03:16.555Z,52.20
2022-08-26T02:05:44.817Z,52.20
2022-08-26T02:08:15.645Z,52.40
2022-08-26T02:10:51.304Z,52.50
2022-08-26T02:13:21.682Z,52.50
2022-08-26T02:15:49.396Z,52.60
2022-08-26T02:18:17.059Z,52.60
2022-08-26T02:20:44.319Z,52.70
2022-08-26T02:23:11.024Z,52.70
2022-08-26T02:25:37.707Z,52.80
2022-08-26T02:28:04.706Z,52.80
2022-08-26T02:30:32.256Z,52.80
2022-08-26T02:32:59.605Z,52.80
2022-08-26T02:35:26.441Z,52.90
2022-08-26T02:37:53.241Z,53.00
2022-08-26T02:40:21.723Z,53.50
2022-08-26T02:42:48.702Z,52.90
2022-08-26T02:45:23.185Z,52.90
2022-08-26T02:47:50.453Z,53.00
2022-08-26T02:50:17.159Z,52.90
2022-08-26T02:52:44.404Z,52.80
2022-08-26T02:55:11.292Z,52.60
2022-08-26T02:57:37.968Z,52.30
2022-08-26T03:00:05.509Z,52.10
2022-08-26T03:02:32.261Z,51.80
2022-08-26T03:05:02.037Z,51.70
2022-08-26T03:07:29.562Z,51.40
2022-08-26T03:09:57.175Z,51.50
2022-08-26T03:12:24.123Z,51.70
2022-08-26T03:14:52.594Z,51.70
2022-08-26T03:17:19.270Z,51.70
2022-08-26T03:19:45.944Z,51.80
2022-08-26T03:22:12.699Z,51.90
2022-08-26T03:24:41.451Z,52.00
2022-08-26T03:27:12.897Z,52.10
2022-08-26T03:29:59.897Z,52.20
2022-08-26T03:32:26.977Z,52.30
2022-08-26T03:34:54.288Z,52.60
2022-08-26T03:37:21.724Z,52.60
2022-08-26T03:39:48.633Z,52.60
2022-08-26T03:42:16.212Z,52.70
2022-08-26T03:44:42.925Z,52.70
2022-08-26T03:47:10.428Z,53.40
2022-08-26T03:49:37.189Z,52.80
2022-08-26T03:52:04.072Z,52.80
2022-08-26T03:54:30.770Z,52.80
2022-08-26T03:56:57.453Z,52.80
2022-08-26T03:59:24.184Z,52.80
2022-08-26T04:01:51.382Z,53.50
2022-08-26T04:04:22.729Z,52.90
2022-08-26T04:06:55.401Z,52.90
2022-08-26T04:09:22.101Z,52.90
2022-08-26T04:11:50.716Z,52.90
2022-08-26T04:14:21.611Z,53.00
2022-08-26T04:16:48.318Z,52.90
2022-08-26T04:19:15.212Z,52.60
2022-08-26T04:21:42.109Z,52.30
2022-08-26T04:24:12.106Z,52.10
2022-08-26T04:26:39.567Z,51.90
2022-08-26T04:29:12.060Z,51.60
2022-08-26T04:31:38.953Z,51.40
2022-08-26T04:34:06.014Z,51.50
2022-08-26T04:36:32.720Z,51.60
2022-08-26T04:39:00.748Z,51.70
2022-08-26T04:41:27.892Z,52.00
2022-08-26T04:43:58.305Z,52.40
2022-08-26T04:46:25.565Z,53.00
2022-08-26T04:48:53.012Z,53.40
2022-08-26T04:51:20.354Z,54.20
2022-08-26T04:53:47.212Z,54.90
2022-08-26T04:56:14.372Z,55.40
2022-08-26T04:58:41.965Z,55.80
2022-08-26T05:01:08.746Z,56.10
2022-08-26T05:03:36.318Z,56.50
2022-08-26T05:06:04.134Z,56.70
2022-08-26T05:08:31.186Z,57.00
2022-08-26T05:10:57.974Z,57.10
2022-08-26T05:13:26.571Z,56.80
2022-08-26T05:15:53.590Z,56.40
2022-08-26T05:18:22.827Z,56.20
2022-08-26T05:20:53.991Z,56.20
2022-08-26T05:23:22.976Z,56.00
2022-08-26T05:25:50.297Z,55.90
2022-08-26T05:28:17.511Z,55.90
2022-08-26T05:30:47.687Z,55.60
2022-08-26T05:33:14.577Z,55.60
2022-08-26T05:35:41.666Z,55.60
2022-08-26T05:38:12.622Z,55.50
2022-08-26T05:40:44.741Z,55.70
2022-08-26T05:43:11.905Z,55.60
2022-08-26T05:45:46.279Z,55.60
2022-08-26T05:48:13.834Z,55.50
2022-08-26T05:50:41.071Z,55.60
2022-08-26T05:53:10.093Z,55.60
2022-08-26T05:55:47.071Z,55.30
2022-08-26T05:58:13.837Z,54.90
2022-08-26T06:00:41.702Z,54.50
2022-08-26T06:03:09.513Z,54.30
2022-08-26T06:05:39.984Z,53.80
2022-08-26T06:08:16.040Z,53.70
2022-08-26T06:10:52.695Z,53.40
2022-08-26T06:13:20.218Z,53.30
2022-08-26T06:15:49.337Z,53.60
2022-08-26T06:18:18.140Z,53.70
2022-08-26T06:20:56.821Z,54.00
2022-08-26T06:23:43.544Z,53.90
2022-08-26T06:26:11.003Z,54.10
2022-08-26T06:28:38.043Z,54.30
2022-08-26T06:31:06.269Z,54.30
2022-08-26T06:33:33.392Z,54.60
2022-08-26T06:36:01.341Z,55.10
2022-08-26T06:38:28.439Z,54.90
2022-08-26T06:40:55.282Z,55.30
2022-08-26T06:43:22.822Z,55.30
2022-08-26T06:45:51.120Z,55.60
2022-08-26T06:48:18.692Z,55.70
2022-08-26T06:50:45.536Z,55.70
2022-08-26T06:53:13.489Z,55.90
2022-08-26T06:55:41.615Z,56.00
2022-08-26T06:58:09.639Z,56.00
2022-08-26T07:00:36.903Z,56.10
2022-08-26T07:03:05.365Z,56.40
2022-08-26T07:05:32.382Z,56.60
2022-08-26T07:07:59.456Z,56.30
2022-08-26T07:10:26.262Z,56.40
2022-08-26T07:12:54.110Z,56.70
2022-08-26T07:15:24.017Z,56.10
2022-08-26T07:18:00.484Z,56.00
2022-08-26T07:20:27.944Z,55.50
2022-08-26T07:22:54.741Z,55.00
2022-08-26T07:25:21.655Z,54.80
2022-08-26T07:27:54.083Z,54.40
2022-08-26T07:30:21.299Z,54.10
2022-08-26T07:32:48.456Z,54.10
2022-08-26T07:35:15.216Z,54.20
2022-08-26T07:37:43.040Z,54.20
2022-08-26T07:40:10.105Z,54.60
2022-08-26T07:42:36.951Z,54.40
2022-08-26T07:45:03.967Z,54.40
2022-08-26T07:47:31.235Z,55.00
2022-08-26T07:49:58.942Z,55.10
2022-08-26T07:52:27.443Z,55.10
2022-08-26T07:54:58.728Z,55.00
2022-08-26T07:57:26.325Z,55.10
2022-08-26T07:59:54.028Z,55.30
2022-08-26T08:02:22.061Z,55.40
2022-08-26T08:04:49.017Z,55.40
2022-08-26T08:07:15.828Z,55.50
2022-08-26T08:09:42.603Z,55.50
2022-08-26T08:12:14.284Z,55.50
2022-08-26T08:14:41.263Z,55.70
2022-08-26T08:17:09.209Z,55.40
2022-08-26T08:19:36.920Z,55.40
2022-08-26T08:22:11.363Z,55.30
2022-08-26T08:24:44.560Z,55.30
2022-08-26T08:27:11.267Z,55.20
2022-08-26T08:29:38.845Z,55.20
2022-08-26T08:32:05.774Z,55.10
2022-08-26T08:37:08.763Z,54.60
2022-08-26T08:39:38.096Z,54.30
2022-08-26T08:42:06.550Z,54.00
2022-08-26T08:44:33.844Z,53.70
2022-08-26T08:47:05.301Z,53.50
2022-08-26T08:49:32.934Z,53.20
2022-08-26T08:52:00.411Z,53.10
2022-08-26T08:54:29.325Z,53.10
2022-08-26T08:56:59.917Z,53.30
2022-08-26T08:59:38.438Z,53.40
2022-08-26T09:02:17.444Z,53.40
2022-08-26T09:04:44.785Z,53.50
2022-08-26T09:07:19.485Z,53.70
2022-08-26T09:09:50.420Z,53.70
2022-08-26T09:12:29.650Z,53.90
2022-08-26T09:15:06.093Z,54.00
2022-08-26T09:17:38.306Z,53.90
2022-08-26T09:20:14.784Z,53.90
2022-08-26T09:22:44.259Z,53.90
2022-08-26T09:25:12.286Z,53.90
2022-08-26T09:27:47.194Z,53.90
2022-08-26T09:30:25.551Z,53.80
2022-08-26T09:33:00.816Z,53.90
2022-08-26T09:35:32.361Z,53.80
2022-08-26T09:38:00.626Z,53.80
2022-08-26T09:40:34.965Z,53.80
2022-08-26T09:43:21.985Z,53.80
2022-08-26T09:45:59.249Z,53.80
2022-08-26T09:48:28.972Z,53.90
2022-08-26T09:50:58.462Z,53.50
2022-08-26T09:53:37.692Z,53.10
2022-08-26T09:56:37.449Z,52.80
2022-08-26T09:59:04.625Z,52.60
2022-08-26T10:01:36.063Z,52.20
2022-08-26T10:04:06.335Z,52.20
2022-08-26T10:06:38.914Z,52.10
2022-08-26T10:09:08.941Z,52.30
2022-08-26T10:11:40.795Z,52.50
2022-08-26T10:14:11.911Z,52.50
2022-08-26T10:16:39.566Z,52.70
2022-08-26T10:19:10.893Z,52.90
2022-08-26T10:21:58.405Z,52.80
2022-08-26T10:24:31.880Z,53.10
2022-08-26T10:27:12.145Z,53.10
2022-08-26T10:29:59.453Z,53.40
2022-08-26T10:32:28.809Z,53.40
2022-08-26T10:34:57.997Z,53.50
2022-08-26T10:37:26.434Z,53.50
2022-08-26T10:39:58.453Z,53.60
2022-08-26T10:42:37.458Z,53.70
2022-08-26T10:45:07.680Z,53.80
2022-08-26T10:47:49.978Z,53.50
2022-08-26T10:50:18.278Z,53.40
2022-08-26T10:53:12.114Z,53.20
2022-08-26T10:55:40.112Z,52.80
2022-08-26T10:58:08.905Z,52.60
2022-08-26T11:01:00.233Z,52.30
2022-08-26T11:03:37.190Z,52.20
2022-08-26T11:06:20.463Z,52.30
2022-08-26T11:08:48.945Z,52.30
2022-08-26T11:11:35.405Z,52.50
2022-08-26T11:14:04.694Z,52.60
2022-08-26T11:16:33.949Z,52.70
2022-08-26T11:19:02.556Z,52.90
2022-08-26T11:21:49.575Z,52.90
2022-08-26T11:24:37.643Z,53.10
2022-08-26T11:27:05.624Z,53.10
2022-08-26T11:29:53.418Z,53.30
2022-08-26T11:32:25.406Z,53.20
2022-08-26T11:34:57.187Z,53.30
2022-08-26T11:37:26.881Z,53.30
2022-08-26T11:39:55.392Z,53.20
2022-08-26T11:42:29.401Z,53.40
2022-08-26T11:44:58.060Z,53.40
2022-08-26T11:47:26.849Z,53.40
2022-08-26T11:50:14.618Z,53.30
2022-08-26T11:52:42.318Z,53.10
2022-08-26T11:55:12.422Z,52.80
2022-08-26T11:57:43.224Z,52.50
2022-08-26T12:00:15.869Z,52.30
2022-08-26T12:02:48.906Z,52.10
2022-08-26T12:05:25.256Z,52.10
2022-08-26T12:07:55.263Z,52.10
2022-08-26T12:10:33.294Z,52.10
2022-08-26T12:13:02.107Z,52.10
2022-08-26T12:15:30.819Z,52.30
2022-08-26T12:18:00.879Z,52.50
2022-08-26T12:20:49.142Z,52.60
2022-08-26T12:23:22.982Z,52.80
2022-08-26T12:25:51.901Z,52.90
2022-08-26T12:28:20.247Z,53.00
2022-08-26T12:31:01.024Z,53.10
2022-08-26T12:33:28.251Z,53.10
2022-08-26T12:35:56.687Z,53.10
2022-08-26T12:38:24.038Z,53.20
2022-08-26T12:40:50.751Z,53.30
2022-08-26T12:43:36.389Z,53.30
2022-08-26T12:46:06.818Z,53.30
2022-08-26T12:48:35.897Z,53.40
2022-08-26T12:51:06.866Z,53.30
2022-08-26T12:53:34.396Z,53.00
2022-08-26T12:56:05.226Z,52.70
2022-08-26T12:58:38.149Z,52.40
2022-08-26T13:01:05.188Z,52.20
2022-08-26T13:03:35.100Z,52.20
2022-08-26T13:06:08.943Z,52.10
2022-08-26T13:08:52.918Z,52.10
2022-08-26T13:11:20.779Z,52.10
2022-08-26T13:13:53.599Z,52.10
2022-08-26T13:16:20.846Z,52.40
2022-08-26T13:18:49.129Z,52.50
2022-08-26T13:21:19.867Z,52.60
2022-08-26T13:23:46.895Z,52.80
2022-08-26T13:26:13.702Z,52.80
2022-08-26T13:28:40.399Z,53.00
2022-08-26T13:31:07.135Z,53.00
2022-08-26T13:33:34.182Z,53.10
2022-08-26T13:36:00.864Z,53.20
2022-08-26T13:38:33.285Z,53.20
2022-08-26T13:41:00.891Z,53.30
2022-08-26T13:43:28.092Z,53.30
2022-08-26T13:45:54.866Z,53.20
2022-08-26T13:48:23.319Z,53.30
2022-08-26T13:50:50.856Z,53.10
2022-08-26T13:53:18.781Z,53.00
2022-08-26T13:55:45.563Z,52.60
2022-08-26T13:58:12.438Z,52.50
2022-08-26T14:00:39.710Z,52.20
2022-08-26T14:03:10.152Z,52.10
2022-08-26T14:05:39.364Z,52.00
2022-08-26T14:08:07.499Z,52.00
2022-08-26T14:10:34.390Z,52.10
2022-08-26T14:13:01.146Z,52.10
2022-08-26T14:15:28.057Z,52.20
2022-08-26T14:17:55.844Z,52.50
2022-08-26T14:20:28.030Z,52.50
2022-08-26T14:23:12.985Z,52.60
2022-08-26T14:25:40.599Z,52.70
2022-08-26T14:28:07.600Z,52.80
2022-08-26T14:30:34.384Z,52.90
2022-08-26T14:33:01.157Z,52.90
2022-08-26T14:35:28.614Z,53.10
2022-08-26T14:37:55.393Z,53.50
2022-08-26T14:40:22.317Z,53.20
2022-08-26T14:42:52.732Z,53.20
2022-08-26T14:45:21.832Z,53.20
2022-08-26T14:47:49.472Z,56.30
2022-08-26T14:50:20.705Z,56.50
2022-08-26T14:53:06.348Z,55.60
2022-08-26T14:55:35.197Z,55.90
2022-08-26T14:58:06.564Z,55.80
2022-08-26T15:00:39.032Z,58.00
2022-08-26T15:03:05.953Z,60.10
2022-08-26T15:05:33.367Z,61.50
2022-08-26T15:08:00.449Z,62.00
2022-08-26T15:10:27.255Z,62.60
2022-08-26T15:12:54.085Z,62.30
2022-08-26T15:15:20.967Z,64.30
2022-08-26T15:17:47.675Z,64.90
2022-08-26T15:20:16.634Z,66.00
2022-08-26T15:22:43.439Z,66.60
2022-08-26T15:25:10.414Z,67.10
2022-08-26T15:27:37.196Z,67.70
2022-08-26T15:30:07.580Z,67.10
2022-08-26T15:32:34.363Z,66.50
2022-08-26T15:35:03.522Z,66.30
2022-08-26T15:37:32.590Z,67.40
2022-08-26T15:39:59.315Z,68.40
2022-08-26T15:42:26.074Z,68.50
2022-08-26T15:44:52.931Z,68.80
2022-08-26T15:47:19.926Z,68.10
2022-08-26T15:49:46.694Z,66.70
2022-08-26T15:52:13.446Z,65.60
2022-08-26T15:54:40.183Z,65.00
2022-08-26T15:57:10.819Z,64.70
2022-08-26T15:59:38.341Z,64.70
2022-08-26T16:02:05.587Z,64.70
2022-08-26T16:04:32.350Z,65.90
2022-08-26T16:06:59.266Z,66.00
2022-08-26T16:09:27.226Z,66.30
2022-08-26T16:11:54.478Z,66.90
2022-08-26T16:14:21.195Z,67.00
2022-08-26T16:16:48.067Z,67.40
2022-08-26T16:19:15.436Z,68.40
2022-08-26T16:21:42.295Z,68.60
2022-08-26T16:24:08.980Z,68.80
2022-08-26T16:26:36.312Z,69.10
2022-08-26T16:29:04.122Z,69.30
2022-08-26T16:31:31.157Z,69.70
2022-08-26T16:33:57.915Z,69.70
2022-08-26T16:36:24.662Z,70.10
2022-08-26T16:38:55.187Z,70.00
2022-08-26T16:41:25.999Z,70.10
2022-08-26T16:43:52.994Z,70.20
2022-08-26T16:46:22.180Z,70.10
2022-08-26T16:48:48.986Z,70.30
2022-08-26T16:51:16.757Z,70.70
2022-08-26T16:53:43.853Z,70.10
2022-08-26T16:56:14.356Z,69.70
2022-08-26T16:58:41.155Z,68.80
2022-08-26T17:01:08.277Z,68.00
2022-08-26T17:03:34.998Z,67.40
2022-08-26T17:06:02.853Z,67.00
2022-08-26T17:08:30.411Z,67.70
2022-08-26T17:10:58.854Z,68.00
2022-08-26T17:13:35.186Z,68.10
2022-08-26T17:16:04.277Z,68.80
2022-08-26T17:18:31.204Z,68.40
2022-08-26T17:21:00.156Z,69.00
2022-08-26T17:23:26.858Z,69.70
2022-08-26T17:25:53.606Z,70.10
2022-08-26T17:28:21.307Z,70.60
2022-08-26T17:30:48.049Z,70.90
2022-08-26T17:33:14.887Z,71.00
2022-08-26T17:35:43.931Z,70.70
2022-08-26T17:38:10.769Z,71.30
2022-08-26T17:40:37.815Z,71.70
2022-08-26T17:43:12.076Z,71.70
2022-08-26T17:45:39.904Z,71.60
2022-08-26T17:48:08.401Z,71.80
2022-08-26T17:50:36.686Z,72.00
2022-08-26T17:53:03.427Z,72.00
2022-08-26T17:55:30.309Z,71.90
2022-08-26T17:57:57.086Z,71.10
2022-08-26T18:00:26.455Z,70.90
2022-08-26T18:02:55.675Z,70.40
2022-08-26T18:05:22.599Z,69.90
2022-08-26T18:07:49.407Z,69.90
2022-08-26T18:10:17.616Z,69.20
2022-08-26T18:12:44.635Z,69.30
2022-08-26T18:15:11.921Z,67.70
2022-08-26T18:17:39.505Z,68.90
2022-08-26T18:20:07.842Z,68.10
2022-08-26T18:22:34.982Z,67.70
2022-08-26T18:25:02.008Z,67.40
2022-08-26T18:27:28.925Z,66.80
2022-08-26T18:29:55.960Z,67.50
2022-08-26T18:32:22.676Z,66.20
2022-08-26T18:34:49.489Z,65.90
2022-08-26T18:37:16.761Z,65.90
2022-08-26T18:39:43.510Z,65.60
2022-08-26T18:42:10.385Z,65.50
2022-08-26T18:44:37.138Z,65.30
2022-08-26T18:47:04.446Z,65.00
2022-08-26T18:49:31.158Z,65.00
2022-08-26T18:51:57.854Z,64.70
2022-08-26T18:54:24.654Z,64.70
2022-08-26T18:56:51.841Z,64.50
2022-08-26T18:59:18.595Z,64.40
2022-08-26T19:01:45.563Z,64.30
2022-08-26T19:04:14.067Z,63.90
2022-08-26T19:06:42.597Z,63.70
2022-08-26T19:09:09.706Z,63.50
2022-08-26T19:11:42.774Z,63.20
2022-08-26T19:14:10.927Z,63.10
2022-08-26T19:16:38.937Z,63.30
2022-08-26T19:19:05.862Z,62.60
2022-08-26T19:21:33.177Z,62.70
2022-08-26T19:24:01.023Z,63.00
2022-08-26T19:26:28.004Z,63.00
2022-08-26T19:28:55.193Z,63.00
2022-08-26T19:31:21.963Z,63.10
2022-08-26T19:33:48.734Z,63.20
2022-08-26T19:36:16.832Z,63.30
2022-08-26T19:38:44.098Z,63.30
2022-08-26T19:41:12.059Z,63.50
2022-08-26T19:43:38.772Z,63.50
2022-08-26T19:46:15.204Z,63.40
2022-08-26T19:48:44.979Z,63.30
2022-08-26T19:51:15.765Z,64.20
2022-08-26T19:53:43.754Z,63.10
2022-08-26T19:56:10.750Z,63.00
2022-08-26T19:58:37.516Z,62.80
2022-08-26T20:01:04.850Z,62.60
2022-08-26T20:03:32.549Z,62.40
2022-08-26T20:05:59.663Z,62.20
2022-08-26T20:08:26.554Z,62.20
2022-08-26T20:10:54.061Z,62.30
2022-08-26T20:13:22.017Z,62.30
2022-08-26T20:15:48.979Z,62.30
2022-08-26T20:18:34.472Z,62.70
2022-08-26T20:21:20.126Z,61.60
2022-08-26T20:23:47.311Z,61.60
2022-08-26T20:26:14.329Z,61.40
2022-08-26T20:28:41.125Z,61.00
2022-08-26T20:31:08.296Z,60.90
2022-08-26T20:33:46.325Z,60.80
2022-08-26T20:36:14.013Z,61.10
2022-08-26T20:38:41.010Z,61.30
2022-08-26T20:41:07.863Z,61.50
2022-08-26T20:43:35.265Z,61.70
2022-08-26T20:46:02.326Z,61.70
2022-08-26T20:48:34.982Z,61.90
2022-08-26T20:51:01.728Z,62.10
2022-08-26T20:53:28.773Z,62.20
2022-08-26T20:55:59.061Z,62.30
2022-08-26T20:58:25.761Z,62.50
2022-08-26T21:00:52.606Z,62.30
2022-08-26T21:03:19.436Z,63.10
2022-08-26T21:05:46.422Z,62.50
2022-08-26T21:08:13.247Z,62.50
2022-08-26T21:10:40.454Z,62.50
2022-08-26T21:13:07.225Z,62.50
2022-08-26T21:15:35.375Z,62.50
2022-08-26T21:18:03.391Z,62.70
2022-08-26T21:20:30.753Z,62.60
2022-08-26T21:22:57.537Z,62.80
2022-08-26T21:25:24.515Z,62.70
2022-08-26T21:27:51.261Z,62.90
2022-08-26T21:30:17.991Z,62.90
2022-08-26T21:32:44.723Z,62.90
2022-08-26T21:35:11.415Z,62.30
2022-08-26T21:37:38.132Z,61.80
2022-08-26T21:40:05.586Z,61.70
2022-08-26T21:42:33.066Z,61.60
2022-08-26T21:45:00.004Z,61.30
2022-08-26T21:47:26.780Z,61.00
2022-08-26T21:49:53.632Z,60.80
2022-08-26T21:52:21.284Z,60.90
2022-08-26T21:54:49.279Z,61.10
2022-08-26T21:57:16.729Z,61.40
2022-08-26T21:59:43.435Z,61.60
2022-08-26T22:02:11.152Z,61.70
2022-08-26T22:04:37.967Z,61.60
2022-08-26T22:07:05.038Z,62.00
2022-08-26T22:09:31.824Z,62.00
2022-08-26T22:11:58.733Z,62.10
2022-08-26T22:14:30.705Z,62.20
2022-08-26T22:16:57.803Z,62.90
2022-08-26T22:19:24.571Z,61.90
2022-08-26T22:21:52.979Z,61.90
2022-08-26T22:24:20.694Z,62.00
2022-08-26T22:26:47.439Z,62.00
2022-08-26T22:29:14.617Z,62.10
2022-08-26T22:31:41.882Z,62.20
2022-08-26T22:34:09.542Z,62.30
2022-08-26T22:36:43.057Z,62.20
2022-08-26T22:39:11.522Z,62.30
2022-08-26T22:41:38.249Z,62.30
2022-08-26T22:44:04.960Z,62.50
2022-08-26T22:46:34.828Z,62.60
2022-08-26T22:49:06.049Z,62.60
2022-08-26T22:51:34.509Z,62.70
2022-08-26T22:54:01.479Z,62.90
2022-08-26T22:56:28.176Z,61.60
2022-08-26T22:58:54.880Z,61.50
2022-08-26T23:01:21.639Z,61.10
2022-08-26T23:03:48.516Z,60.70
2022-08-26T23:06:15.401Z,60.50
2022-08-26T23:08:42.098Z,60.20
2022-08-26T23:11:09.542Z,60.30
2022-08-26T23:13:36.517Z,60.50
2022-08-26T23:16:04.257Z,60.80
2022-08-26T23:18:30.970Z,60.90
2022-08-26T23:20:57.734Z,60.90
2022-08-26T23:23:24.640Z,60.90
2022-08-26T23:25:51.333Z,61.10
2022-08-26T23:28:18.091Z,61.10
2022-08-26T23:30:44.775Z,61.30
2022-08-26T23:33:11.484Z,61.40
2022-08-26T23:35:38.244Z,61.40
2022-08-26T23:38:09.917Z,61.50
2022-08-26T23:40:38.808Z,61.50
2022-08-26T23:43:06.895Z,61.50
2022-08-26T23:45:33.856Z,61.60
2022-08-26T23:48:00.664Z,61.60
2022-08-26T23:50:46.833Z,61.70
2022-08-26T23:53:19.385Z,61.50
2022-08-26T23:55:50.661Z,62.40
2022-08-26T23:58:17.830Z,61.70
